Portada
METAR-TAF:

METAR-TAF

Aeropuertos :

Aeropuerto Internacional Benazir Bhutto

Islamabad, Pakistán

latitud: 33-37N, longitud: 073-06E, altitud: 507 m

Observación

El informe se hizo hace 30 minutos, a las 03:00 UTC
Viento calma
Temperatura 16°C
Humedad 72%
Presión 1017 hPa
Visibilidad 10 km o más
sin nubes por debajo de 1500 m y sin presencia de cumulonimbus.

METAR: OPRN 220300Z 00000KT CAVOK 16/11 Q1017 NOSIG RMK A3005

Hora: 08:30 (03:30 UTC)

Pronóstico

El informe se hizo hace 6 horas y 0 minutos, a las 21:30 UTC
Pronóstico válido del 22 a las 00 UTC al 23 a las 06 UTC
Viento 10 kt del sureste
Visibilidad: 4000 m
calima
Evolucionando progresivamente
del 22 a las 04 UTC al 22 a las 06 UTC
Visibilidad 10 km o más
sin nubes por debajo de 1500 m y sin presencia de cumulonimbus.
Temporalmente
del 23 a las 00 UTC al 23 a las 04 UTC
Visibilidad: 4000 m
calima

TAF: OPRN 212130Z 2200/2306 13010KT 4000 HZ NSC BECMG 2204/2206 CAVOK TEMPO 2300/2304 4000 HZ NSC

Observaciones y pronósticos meteorológicos de más de 4000 aeropuertos (mensajes METAR y TAF).

Los puntos amarillos y rojos representan las estaciones disponibles.

Ponga el ratón en el punto deseado para ver el nombre de la estación.

Haga clic para ver las observaciones y los pronósticos meteorológicos.

Para cambiar el mapa : haga clic en los botones verdes con una cruz de color negro para hacer un zoom, en el botón verde con un guión para alejar o en las flechas verdes para mapas adyacentes.


METAR-TAF: